createdAt,value
2019-03-01T00:04:06.871Z,29.10
2019-03-01T00:09:31.351Z,24.83
2019-03-01T00:14:49.644Z,29.63
2019-03-01T00:20:18.828Z,28.50
2019-03-01T00:25:42.035Z,34.97
2019-03-01T00:30:57.480Z,34.67
2019-03-01T00:36:25.295Z,28.93
2019-03-01T00:41:34.741Z,32.13
2019-03-01T00:46:38.221Z,29.73
2019-03-01T00:51:41.660Z,30.13
2019-03-01T00:56:45.094Z,35.83
2019-03-01T01:01:48.522Z,28.13
2019-03-01T01:06:52.097Z,32.70
2019-03-01T01:11:55.524Z,29.23
2019-03-01T01:16:58.976Z,33.27
2019-03-01T01:22:02.422Z,33.97
2019-03-01T01:27:06.167Z,33.13
2019-03-01T01:32:09.607Z,34.90
2019-03-01T01:37:13.061Z,30.10
2019-03-01T01:42:16.505Z,33.13
2019-03-01T01:47:20.034Z,33.73
2019-03-01T01:52:23.495Z,34.33
2019-03-01T01:57:26.931Z,30.23
2019-03-01T02:02:30.369Z,29.53
2019-03-01T02:07:33.811Z,30.10
2019-03-01T02:12:37.313Z,25.70
2019-03-01T02:17:40.860Z,33.43
2019-03-01T02:22:44.286Z,34.47
2019-03-01T02:27:47.721Z,30.67
2019-03-01T02:32:51.147Z,33.77
2019-03-01T02:37:54.575Z,29.60
2019-03-01T02:42:58.001Z,31.27
2019-03-01T02:48:01.497Z,29.70
2019-03-01T02:53:05.056Z,30.83
2019-03-01T02:58:08.500Z,30.70
2019-03-01T03:03:11.949Z,33.13
2019-03-01T03:08:15.555Z,33.17
2019-03-01T03:13:19.003Z,30.97
2019-03-01T03:18:22.596Z,30.20
2019-03-01T03:23:26.087Z,36.63
2019-03-01T03:28:29.518Z,32.93
2019-03-01T03:33:33.029Z,31.10
2019-03-01T03:38:36.574Z,39.17
2019-03-01T03:43:39.984Z,33.77
2019-03-01T03:48:43.429Z,34.87
2019-03-01T03:53:46.886Z,31.07
2019-03-01T03:58:50.400Z,34.93
2019-03-01T04:03:53.833Z,40.20
2019-03-01T04:08:57.281Z,34.80
2019-03-01T04:14:00.720Z,38.00
2019-03-01T04:19:04.135Z,37.33
2019-03-01T04:24:07.564Z,35.10
2019-03-01T04:29:11.020Z,35.43
2019-03-01T04:34:14.494Z,38.20
2019-03-01T04:39:17.934Z,44.90
2019-03-01T04:44:21.374Z,45.03
2019-03-01T04:49:24.820Z,44.23
2019-03-01T04:54:28.248Z,39.70
2019-03-01T04:59:31.716Z,38.00
2019-03-01T05:04:35.140Z,46.37
2019-03-01T05:09:38.664Z,45.83
2019-03-01T05:14:42.127Z,40.73
2019-03-01T05:19:45.686Z,43.10
2019-03-01T05:24:49.105Z,41.57
2019-03-01T05:29:53.475Z,46.47
2019-03-01T05:34:56.889Z,40.57
2019-03-01T05:40:00.313Z,40.73
2019-03-01T05:45:05.316Z,40.43
2019-03-01T05:50:11.790Z,39.77
2019-03-01T05:55:15.415Z,47.90
2019-03-01T06:00:18.912Z,48.57
2019-03-01T06:05:22.362Z,41.20
2019-03-01T06:10:31.908Z,48.77
2019-03-01T06:15:52.908Z,43.47
2019-03-01T06:21:02.156Z,51.10
2019-03-01T06:26:08.642Z,43.67
2019-03-01T06:31:40.542Z,41.73
2019-03-01T06:37:01.917Z,47.17
2019-03-01T06:42:13.096Z,48.03
2019-03-01T06:47:44.705Z,45.20
2019-03-01T06:52:48.295Z,49.03
2019-03-01T06:57:53.068Z,46.83
2019-03-01T07:03:06.574Z,47.27
2019-03-01T07:08:23.958Z,44.03
2019-03-01T07:13:30.748Z,42.60
2019-03-01T07:18:40.269Z,45.37
2019-03-01T07:23:46.819Z,38.10
2019-03-01T07:29:10.734Z,42.50
2019-03-01T07:34:17.214Z,41.47
2019-03-01T07:39:19.875Z,44.60
2019-03-01T07:44:23.350Z,39.90
2019-03-01T07:49:29.210Z,41.37
2019-03-01T07:54:43.330Z,46.80
2019-03-01T07:59:46.770Z,40.23
2019-03-01T08:04:50.216Z,45.73
2019-03-01T08:09:54.269Z,42.20
2019-03-01T08:14:57.948Z,38.70
2019-03-01T08:20:01.464Z,40.83
2019-03-01T08:25:07.088Z,37.27
2019-03-01T08:30:15.461Z,39.87
2019-03-01T08:35:19.389Z,42.93
2019-03-01T08:40:22.824Z,48.27
2019-03-01T08:45:26.276Z,38.37
2019-03-01T08:50:29.723Z,41.07
2019-03-01T08:55:35.512Z,41.53
2019-03-01T09:00:43.231Z,42.57
2019-03-01T09:05:46.707Z,40.30
2019-03-01T09:10:50.141Z,43.27
2019-03-01T09:15:53.589Z,43.57
2019-03-01T09:21:04.517Z,55.63
2019-03-01T09:26:02.191Z,39.90
2019-03-01T09:31:05.764Z,39.43
2019-03-01T09:36:10.930Z,42.57
2019-03-01T09:41:14.357Z,40.10
2019-03-01T09:46:20.786Z,33.13
2019-03-01T09:51:22.946Z,37.53
2019-03-01T09:56:26.357Z,33.57
2019-03-01T10:01:29.791Z,40.07
2019-03-01T10:06:38.097Z,38.93
2019-03-01T10:11:38.386Z,37.70
2019-03-01T10:16:41.825Z,43.00
2019-03-01T10:21:45.284Z,46.57
2019-03-01T10:26:48.704Z,49.77
2019-03-01T10:31:52.220Z,47.33
2019-03-01T10:36:55.637Z,43.43
2019-03-01T10:41:59.062Z,45.87
2019-03-01T10:47:02.489Z,43.27
2019-03-01T10:52:05.924Z,42.93
2019-03-01T10:57:09.345Z,42.30
2019-03-01T11:02:13.028Z,39.03
2019-03-01T11:07:16.477Z,40.17
2019-03-01T11:12:19.918Z,46.27
2019-03-01T11:17:23.363Z,41.30
2019-03-01T11:22:26.803Z,49.47
2019-03-01T11:27:30.233Z,45.83
2019-03-01T11:32:33.659Z,49.23
2019-03-01T11:37:37.103Z,65.33
2019-03-01T11:42:40.524Z,71.60
2019-03-01T11:47:44.098Z,69.67
2019-03-01T11:52:47.744Z,65.03
2019-03-01T11:57:51.319Z,59.83
2019-03-01T12:02:54.803Z,69.57
2019-03-01T12:07:58.221Z,52.60
2019-03-01T12:13:01.643Z,70.17
2019-03-01T12:18:05.107Z,55.57
2019-03-01T12:23:08.573Z,72.10
2019-03-01T12:28:11.976Z,56.67
2019-03-01T12:33:15.415Z,38.13
2019-03-01T12:38:18.848Z,39.27
2019-03-01T12:43:22.284Z,37.33
2019-03-01T12:48:25.722Z,37.60
2019-03-01T12:53:29.149Z,36.60
2019-03-01T12:58:32.590Z,35.17
2019-03-01T13:03:36.028Z,27.30
2019-03-01T13:08:39.470Z,31.87
2019-03-01T13:13:42.921Z,36.03
2019-03-01T13:18:47.602Z,38.10
2019-03-01T13:23:51.519Z,38.93
2019-03-01T13:28:54.949Z,43.77
2019-03-01T13:33:58.378Z,35.10
2019-03-01T13:39:01.818Z,38.13
2019-03-01T13:44:05.279Z,40.30
2019-03-01T13:49:08.707Z,36.63
2019-03-01T13:54:12.151Z,32.13
2019-03-01T13:59:15.591Z,33.50
2019-03-01T14:04:19.040Z,35.90
2019-03-01T14:09:23.305Z,33.43
2019-03-01T14:14:28.118Z,32.60
2019-03-01T14:19:31.749Z,28.40
2019-03-01T14:24:35.187Z,32.93
2019-03-01T14:29:38.965Z,34.13
2019-03-01T14:34:47.513Z,30.13
2019-03-01T14:39:47.541Z,25.37
2019-03-01T14:44:50.999Z,23.37
2019-03-01T14:49:57.849Z,31.03
2019-03-01T14:54:59.624Z,26.33
2019-03-01T15:00:09.787Z,28.00
2019-03-01T15:05:17.886Z,28.30
2019-03-01T15:10:19.554Z,29.23
2019-03-01T15:15:26.420Z,27.67
2019-03-01T15:20:28.244Z,23.00
2019-03-01T15:25:31.677Z,24.47
2019-03-01T15:30:35.185Z,22.13
2019-03-01T15:35:39.820Z,23.20
2019-03-01T15:40:43.837Z,27.40
2019-03-01T15:45:47.295Z,24.33
2019-03-01T15:50:50.790Z,18.73
2019-03-01T15:55:55.003Z,23.83
2019-03-01T16:00:58.599Z,21.17
2019-03-01T16:06:02.042Z,22.23
2019-03-01T16:11:05.645Z,18.93
2019-03-01T16:16:10.793Z,15.47
2019-03-01T16:21:14.282Z,21.37
2019-03-01T16:26:17.735Z,19.70
2019-03-01T16:31:21.182Z,16.07
2019-03-01T16:36:27.682Z,17.50
2019-03-01T16:41:31.109Z,13.13
2019-03-01T16:46:34.543Z,16.17
2019-03-01T16:51:38.012Z,19.90
2019-03-01T16:56:41.449Z,14.10
2019-03-01T17:01:45.174Z,12.97
2019-03-01T17:06:49.332Z,10.37
2019-03-01T17:11:53.749Z,8.77
2019-03-01T17:16:59.650Z,14.57
2019-03-01T17:22:02.328Z,10.70
2019-03-01T17:27:06.781Z,15.13
2019-03-01T17:32:10.547Z,10.90
2019-03-01T17:37:17.256Z,9.77
2019-03-01T17:42:20.738Z,11.70
2019-03-01T17:47:25.016Z,9.20
2019-03-01T17:52:30.567Z,10.40
2019-03-01T17:57:34.021Z,13.90
2019-03-01T18:02:37.499Z,10.97
2019-03-01T18:07:41.164Z,20.60
2019-03-01T18:12:44.583Z,11.90
2019-03-01T18:17:48.001Z,9.00
2019-03-01T18:22:51.516Z,8.93
2019-03-01T18:27:54.940Z,12.80
2019-03-01T18:32:58.431Z,12.90
2019-03-01T18:38:01.856Z,9.60
2019-03-01T18:43:05.289Z,9.17
2019-03-01T18:48:09.805Z,12.00
2019-03-01T18:53:13.424Z,12.77
2019-03-01T18:58:16.847Z,18.93
2019-03-01T19:03:20.277Z,12.83
2019-03-01T19:08:24.572Z,9.50
2019-03-01T19:13:28.019Z,9.50
2019-03-01T19:18:31.474Z,13.17
2019-03-01T19:23:34.881Z,14.07
2019-03-01T19:28:38.312Z,18.13
2019-03-01T19:33:41.890Z,12.00
2019-03-01T19:38:46.486Z,12.77
2019-03-01T19:43:55.598Z,12.67
2019-03-01T19:48:55.079Z,13.00
2019-03-01T19:54:01.145Z,11.03
2019-03-01T19:59:03.650Z,9.47
2019-03-01T20:04:07.093Z,10.50
2019-03-01T20:09:11.143Z,15.43
2019-03-01T20:14:14.592Z,11.80
2019-03-01T20:19:20.843Z,15.17
2019-03-01T20:24:23.268Z,19.17
2019-03-01T20:29:26.713Z,11.20
2019-03-01T20:34:31.283Z,12.70
2019-03-01T20:39:34.937Z,20.50
2019-03-01T20:44:38.360Z,13.17
2019-03-01T20:49:41.794Z,16.73
2019-03-01T20:54:45.235Z,12.10
2019-03-01T20:59:50.642Z,15.40
2019-03-01T21:04:53.901Z,9.73
2019-03-01T21:09:57.916Z,10.00
2019-03-01T21:15:02.003Z,14.67
2019-03-01T21:20:08.848Z,18.27
2019-03-01T21:25:19.554Z,8.50
2019-03-01T21:30:30.086Z,12.63
2019-03-01T21:35:33.538Z,11.80
2019-03-01T21:40:36.974Z,21.60
2019-03-01T21:45:40.387Z,13.57
2019-03-01T21:50:43.983Z,13.87
2019-03-01T21:55:47.441Z,13.30
2019-03-01T22:00:50.857Z,12.50
2019-03-01T22:05:54.704Z,11.13
2019-03-01T22:10:58.143Z,10.20
2019-03-01T22:16:01.888Z,19.67
2019-03-01T22:21:05.339Z,8.77
2019-03-01T22:26:09.688Z,7.93
2019-03-01T22:31:14.088Z,7.80
2019-03-01T22:36:18.215Z,8.27
2019-03-01T22:41:22.430Z,6.43
2019-03-01T22:46:25.985Z,7.33
2019-03-01T22:51:29.382Z,9.10
2019-03-01T22:56:32.803Z,5.40
2019-03-01T23:01:38.276Z,7.10
2019-03-01T23:06:41.766Z,4.33
2019-03-01T23:11:45.174Z,5.13
2019-03-01T23:16:50.774Z,6.87
2019-03-01T23:21:53.757Z,6.37
2019-03-01T23:26:57.750Z,5.53
2019-03-01T23:32:01.256Z,4.57
2019-03-01T23:37:04.687Z,5.97
2019-03-01T23:42:08.108Z,5.37
2019-03-01T23:47:11.539Z,6.23
2019-03-01T23:52:15.054Z,5.97
2019-03-01T23:57:18.632Z,4.67
